createdAt,value
2023-02-26T00:01:44.070Z,15.07
2023-02-26T00:04:28.014Z,17.77
2023-02-26T00:07:11.967Z,19.43
2023-02-26T00:09:55.884Z,21.87
2023-02-26T00:12:41.807Z,16.20
2023-02-26T00:15:27.009Z,20.33
2023-02-26T00:18:17.640Z,17.27
2023-02-26T00:21:01.991Z,17.53
2023-02-26T00:23:46.182Z,18.37
2023-02-26T00:26:32.034Z,16.50
2023-02-26T00:29:18.167Z,16.73
2023-02-26T00:32:02.680Z,19.17
2023-02-26T00:34:47.364Z,24.30
2023-02-26T00:37:52.597Z,16.63
2023-02-26T00:40:42.636Z,20.10
2023-02-26T00:43:27.835Z,25.40
2023-02-26T00:46:22.973Z,18.43
2023-02-26T00:49:19.377Z,19.70
2023-02-26T00:52:06.720Z,18.10
2023-02-26T00:54:50.474Z,20.63
2023-02-26T00:57:35.876Z,13.87
2023-02-26T01:00:20.633Z,20.97
2023-02-26T01:03:06.588Z,16.30
2023-02-26T01:05:50.947Z,18.27
2023-02-26T01:08:44.323Z,19.87
2023-02-26T01:11:28.547Z,18.97
2023-02-26T01:14:12.819Z,16.23
2023-02-26T01:17:03.860Z,19.60
2023-02-26T01:19:54.499Z,16.70
2023-02-26T01:22:43.744Z,25.33
2023-02-26T01:25:33.719Z,15.30
2023-02-26T01:28:18.040Z,16.77
2023-02-26T01:31:06.952Z,21.80
2023-02-26T01:33:55.202Z,22.40
2023-02-26T01:36:45.188Z,26.07
2023-02-26T01:39:36.106Z,22.13
2023-02-26T01:42:22.977Z,23.93
2023-02-26T01:45:13.687Z,22.27
2023-02-26T01:48:04.744Z,24.97
2023-02-26T01:50:49.061Z,20.80
2023-02-26T01:53:35.496Z,20.60
2023-02-26T01:56:21.308Z,24.93
2023-02-26T01:59:06.213Z,19.27
2023-02-26T02:01:50.650Z,19.90
2023-02-26T02:04:35.439Z,25.33
2023-02-26T02:07:20.404Z,25.93
2023-02-26T02:10:06.416Z,19.37
2023-02-26T02:12:55.752Z,19.13
2023-02-26T02:16:11.379Z,20.83
2023-02-26T02:19:02.865Z,14.77
2023-02-26T02:21:56.022Z,19.13
2023-02-26T02:24:53.566Z,17.53
2023-02-26T02:27:48.717Z,18.50
2023-02-26T02:30:39.886Z,22.30
2023-02-26T02:33:31.824Z,15.37
2023-02-26T02:36:21.840Z,23.37
2023-02-26T02:39:11.277Z,27.07
2023-02-26T02:41:59.465Z,19.50
2023-02-26T02:44:48.083Z,17.73
2023-02-26T02:47:36.764Z,23.33
2023-02-26T02:50:27.577Z,21.77
2023-02-26T02:53:16.397Z,19.27
2023-02-26T02:56:05.915Z,17.83
2023-02-26T02:58:53.763Z,18.53
2023-02-26T03:01:39.284Z,19.67
2023-02-26T03:04:23.254Z,17.80
2023-02-26T03:07:08.557Z,20.00
2023-02-26T03:09:52.531Z,19.23
2023-02-26T03:12:37.369Z,23.47
2023-02-26T03:15:40.756Z,18.83
2023-02-26T03:18:37.881Z,25.23
2023-02-26T03:21:29.389Z,20.87
2023-02-26T03:24:24.488Z,23.63
2023-02-26T03:27:15.053Z,21.27
2023-02-26T03:30:04.194Z,20.07
2023-02-26T03:33:02.204Z,19.53
2023-02-26T03:35:51.595Z,21.23
2023-02-26T03:38:43.725Z,20.40
2023-02-26T03:41:33.749Z,24.67
2023-02-26T03:44:24.467Z,21.13
2023-02-26T03:47:12.515Z,26.07
2023-02-26T03:50:00.420Z,17.63
2023-02-26T03:52:48.482Z,29.40
2023-02-26T03:55:51.270Z,18.43
2023-02-26T03:59:16.472Z,21.23
2023-02-26T04:02:05.653Z,25.50
2023-02-26T04:04:58.263Z,19.77
2023-02-26T04:07:42.728Z,18.03
2023-02-26T04:10:30.987Z,23.27
2023-02-26T04:13:14.772Z,21.10
2023-02-26T04:16:00.215Z,21.77
2023-02-26T04:18:44.275Z,25.80
2023-02-26T04:21:28.146Z,18.93
2023-02-26T04:24:12.362Z,18.23
2023-02-26T04:26:56.322Z,17.17
2023-02-26T04:29:40.589Z,18.10
2023-02-26T04:32:25.869Z,16.77
2023-02-26T04:35:10.809Z,18.97
2023-02-26T04:37:54.899Z,16.67
2023-02-26T04:40:39.691Z,26.03
2023-02-26T04:43:26.129Z,26.90
2023-02-26T04:46:25.650Z,25.23
2023-02-26T04:49:11.231Z,21.47
2023-02-26T04:51:58.564Z,19.57
2023-02-26T04:54:42.846Z,18.90
2023-02-26T04:57:28.061Z,21.80
2023-02-26T05:00:13.254Z,19.53
2023-02-26T05:02:57.502Z,21.53
2023-02-26T05:05:42.734Z,16.70
2023-02-26T05:08:27.585Z,20.13
2023-02-26T05:11:12.307Z,17.67
2023-02-26T05:13:56.256Z,24.20
2023-02-26T05:16:40.082Z,21.87
2023-02-26T05:19:24.357Z,17.37
2023-02-26T05:22:09.650Z,17.67
2023-02-26T05:24:53.911Z,19.47
2023-02-26T05:27:38.235Z,23.40
2023-02-26T05:30:22.188Z,14.80
2023-02-26T05:33:06.269Z,16.07
2023-02-26T05:35:50.290Z,20.40
2023-02-26T05:38:35.758Z,18.23
2023-02-26T05:41:19.618Z,24.60
2023-02-26T05:44:03.697Z,19.27
2023-02-26T05:46:47.641Z,19.30
2023-02-26T05:49:31.351Z,18.60
2023-02-26T05:52:15.320Z,25.13
2023-02-26T05:55:01.168Z,37.90
2023-02-26T05:57:45.468Z,18.77
2023-02-26T06:00:29.383Z,20.53
2023-02-26T06:03:13.437Z,17.23
2023-02-26T06:05:57.364Z,32.07
2023-02-26T06:08:41.271Z,22.47
2023-02-26T06:11:26.560Z,15.80
2023-02-26T06:14:10.215Z,22.57
2023-02-26T06:16:54.054Z,15.70
2023-02-26T06:19:37.905Z,20.60
2023-02-26T06:22:21.621Z,15.97
2023-02-26T06:25:06.443Z,16.30
2023-02-26T06:27:51.559Z,18.87
2023-02-26T06:30:35.572Z,15.83
2023-02-26T06:33:19.553Z,15.10
2023-02-26T06:36:03.338Z,27.03
2023-02-26T06:38:47.215Z,15.00
2023-02-26T06:41:31.123Z,18.77
2023-02-26T06:44:16.572Z,13.90
2023-02-26T06:47:00.404Z,13.93
2023-02-26T06:49:44.319Z,13.97
2023-02-26T06:52:28.046Z,17.67
2023-02-26T06:55:12.698Z,15.50
2023-02-26T06:57:56.995Z,9.90
2023-02-26T07:00:42.217Z,16.77
2023-02-26T07:03:26.036Z,13.43
2023-02-26T07:06:26.368Z,14.97
2023-02-26T07:09:11.149Z,19.20
2023-02-26T07:11:54.941Z,17.30
2023-02-26T07:14:38.731Z,17.00
2023-02-26T07:17:24.272Z,19.63
2023-02-26T07:20:10.448Z,16.27
2023-02-26T07:22:54.261Z,17.20
2023-02-26T07:25:38.559Z,19.63
2023-02-26T07:28:22.465Z,18.43
2023-02-26T07:31:06.693Z,17.47
2023-02-26T07:33:52.072Z,21.90
2023-02-26T07:36:36.029Z,17.30
2023-02-26T07:39:19.831Z,14.47
2023-02-26T07:42:03.677Z,28.10
2023-02-26T07:44:47.543Z,17.23
2023-02-26T07:47:31.659Z,16.03
2023-02-26T07:50:17.475Z,15.07
2023-02-26T07:53:01.460Z,18.87
2023-02-26T07:55:45.479Z,15.80
2023-02-26T07:58:29.870Z,19.63
2023-02-26T08:01:14.087Z,17.83
2023-02-26T08:03:58.335Z,19.17
2023-02-26T08:06:43.955Z,17.33
2023-02-26T08:09:28.133Z,18.58
2023-02-26T08:12:12.442Z,17.92
2023-02-26T08:14:56.509Z,14.07
2023-02-26T08:17:40.374Z,40.60
2023-02-26T08:20:24.440Z,22.42
2023-02-26T08:23:10.252Z,15.52
2023-02-26T08:26:01.654Z,16.55
2023-02-26T08:28:46.439Z,23.80
2023-02-26T08:31:31.832Z,13.32
2023-02-26T08:34:15.768Z,17.48
2023-02-26T08:36:59.754Z,15.30
2023-02-26T08:39:44.890Z,14.75
2023-02-26T08:42:28.731Z,16.30
2023-02-26T08:45:13.116Z,17.05
2023-02-26T08:47:57.520Z,21.05
2023-02-26T08:50:41.852Z,17.40
2023-02-26T08:53:25.718Z,15.27
2023-02-26T08:56:10.894Z,10.70
2023-02-26T08:58:54.699Z,12.77
2023-02-26T09:01:38.729Z,19.52
2023-02-26T09:04:22.664Z,13.45
2023-02-26T09:07:06.624Z,15.18
2023-02-26T09:09:50.525Z,15.23
2023-02-26T09:12:37.305Z,11.35
2023-02-26T09:15:21.430Z,14.35
2023-02-26T09:18:06.368Z,21.13
2023-02-26T09:20:50.536Z,16.00
2023-02-26T09:23:34.405Z,19.63
2023-02-26T09:26:18.128Z,15.50
2023-02-26T09:29:03.498Z,16.65
2023-02-26T09:31:47.352Z,16.13
2023-02-26T09:34:31.261Z,18.65
2023-02-26T09:37:15.116Z,15.77
2023-02-26T09:39:59.018Z,12.30
2023-02-26T09:42:58.738Z,14.45
2023-02-26T09:45:46.819Z,12.93
2023-02-26T09:48:32.372Z,10.23
2023-02-26T09:51:22.576Z,16.10
2023-02-26T09:54:16.445Z,13.82
2023-02-26T09:57:02.192Z,8.70
2023-02-26T09:59:46.259Z,13.98
2023-02-26T10:02:39.556Z,17.02
2023-02-26T10:05:33.920Z,19.23
2023-02-26T10:08:19.986Z,12.95
2023-02-26T10:11:09.803Z,12.23
2023-02-26T10:13:59.805Z,16.63
2023-02-26T10:16:49.095Z,16.58
2023-02-26T10:19:44.367Z,16.67
2023-02-26T10:22:34.409Z,17.67
2023-02-26T10:25:23.331Z,17.58
2023-02-26T10:28:26.196Z,18.00
2023-02-26T10:31:19.529Z,15.23
2023-02-26T10:34:16.543Z,12.77
2023-02-26T10:37:11.103Z,15.85
2023-02-26T10:39:58.987Z,8.90
2023-02-26T10:42:48.084Z,12.43
2023-02-26T10:45:44.439Z,14.90
2023-02-26T10:48:52.797Z,10.57
2023-02-26T10:51:39.475Z,11.50
2023-02-26T10:54:31.306Z,11.57
2023-02-26T10:57:20.908Z,13.05
2023-02-26T11:00:07.286Z,11.95
2023-02-26T11:02:53.875Z,15.82
2023-02-26T11:05:37.850Z,8.98
2023-02-26T11:08:26.996Z,12.88
2023-02-26T11:11:14.094Z,13.00
2023-02-26T11:13:58.447Z,12.45
2023-02-26T11:16:47.421Z,13.82
2023-02-26T11:19:34.481Z,14.80
2023-02-26T11:22:18.801Z,15.75
2023-02-26T11:25:03.840Z,17.13
2023-02-26T11:27:51.961Z,19.23
2023-02-26T11:30:39.853Z,14.23
2023-02-26T11:33:25.562Z,10.00
2023-02-26T11:36:12.737Z,14.88
2023-02-26T11:38:59.500Z,12.27
2023-02-26T11:41:47.053Z,18.42
2023-02-26T11:44:38.193Z,13.07
2023-02-26T11:47:26.138Z,12.00
2023-02-26T11:50:17.261Z,19.02
2023-02-26T11:53:08.581Z,17.67
2023-02-26T11:55:55.082Z,13.40
2023-02-26T11:58:41.368Z,11.52
2023-02-26T12:01:31.088Z,14.05
2023-02-26T12:04:21.227Z,10.45
2023-02-26T12:07:05.206Z,13.65
2023-02-26T12:09:50.020Z,14.52
2023-02-26T12:12:50.939Z,11.75
2023-02-26T12:15:41.015Z,13.82
2023-02-26T12:18:45.715Z,14.70
2023-02-26T12:21:57.887Z,21.73
2023-02-26T12:25:04.494Z,15.02
2023-02-26T12:28:08.885Z,13.13
2023-02-26T12:31:19.218Z,18.88
2023-02-26T12:34:17.249Z,10.07
2023-02-26T12:37:17.797Z,19.33
2023-02-26T12:40:12.881Z,17.60
2023-02-26T12:43:05.474Z,12.90
2023-02-26T12:45:56.179Z,12.48
2023-02-26T12:49:07.693Z,14.82
2023-02-26T12:52:08.393Z,16.02
2023-02-26T12:55:15.721Z,13.32
2023-02-26T12:58:14.315Z,18.02
2023-02-26T13:01:59.635Z,18.23
2023-02-26T13:05:16.052Z,18.23
2023-02-26T13:08:25.727Z,13.68
2023-02-26T13:11:23.251Z,19.40
2023-02-26T13:14:22.742Z,14.43
2023-02-26T13:17:11.382Z,19.15
2023-02-26T13:19:59.168Z,15.55
2023-02-26T13:22:47.102Z,15.48
2023-02-26T13:25:40.087Z,16.60
2023-02-26T13:28:31.849Z,12.95
2023-02-26T13:31:20.165Z,14.65
2023-02-26T13:34:11.961Z,13.00
2023-02-26T13:36:56.211Z,18.35
2023-02-26T13:39:47.514Z,12.88
2023-02-26T13:42:43.948Z,13.75
2023-02-26T13:45:44.849Z,11.40
2023-02-26T13:48:39.234Z,15.98
2023-02-26T13:51:32.210Z,16.27
2023-02-26T13:54:42.749Z,13.27
2023-02-26T13:57:37.576Z,12.95
2023-02-26T14:00:29.821Z,12.35
2023-02-26T14:03:30.862Z,22.98
2023-02-26T14:06:36.606Z,15.63
2023-02-26T14:09:46.997Z,12.68
2023-02-26T14:12:39.037Z,12.32
2023-02-26T14:15:33.146Z,11.70
2023-02-26T14:18:32.345Z,15.15
2023-02-26T14:21:39.769Z,9.98
2023-02-26T14:24:26.973Z,12.07
2023-02-26T14:27:34.727Z,12.43
2023-02-26T14:30:30.774Z,15.27
2023-02-26T14:33:18.511Z,16.38
2023-02-26T14:36:03.138Z,14.95
2023-02-26T14:38:49.701Z,13.05
2023-02-26T14:41:38.773Z,12.80
2023-02-26T14:44:27.081Z,10.45
2023-02-26T14:47:13.836Z,17.00
2023-02-26T14:50:00.508Z,13.20
2023-02-26T14:53:18.781Z,11.88
2023-02-26T14:56:12.503Z,12.60
2023-02-26T14:59:18.211Z,13.82
2023-02-26T15:02:16.971Z,13.10
2023-02-26T15:05:29.294Z,13.07
2023-02-26T15:08:30.149Z,17.42
2023-02-26T15:11:34.212Z,17.23
2023-02-26T15:14:40.143Z,23.77
2023-02-26T15:17:38.661Z,21.52
2023-02-26T15:20:34.968Z,14.73
2023-02-26T15:23:32.660Z,27.63
2023-02-26T15:26:21.301Z,21.50
2023-02-26T15:29:08.426Z,12.85
2023-02-26T15:31:57.463Z,14.23
2023-02-26T15:34:47.733Z,14.00
2023-02-26T15:37:33.959Z,15.27
2023-02-26T15:40:19.338Z,18.38
2023-02-26T15:43:04.365Z,15.35
2023-02-26T15:45:50.398Z,12.40
2023-02-26T15:48:38.607Z,17.90
2023-02-26T15:51:22.790Z,29.10
2023-02-26T15:54:08.233Z,84.07
2023-02-26T15:56:52.766Z,77.80
2023-02-26T15:59:42.430Z,53.10
2023-02-26T16:02:29.440Z,14.27
2023-02-26T16:05:14.768Z,21.58
2023-02-26T16:07:58.912Z,14.15
2023-02-26T16:10:45.077Z,12.88
2023-02-26T16:13:32.373Z,15.85
2023-02-26T16:16:23.180Z,31.95
2023-02-26T16:19:08.343Z,15.48
2023-02-26T16:21:55.618Z,16.75
2023-02-26T16:24:39.949Z,11.63
2023-02-26T16:27:28.195Z,16.60
2023-02-26T16:30:18.906Z,14.07
2023-02-26T16:33:03.718Z,12.77
2023-02-26T16:35:50.044Z,22.40
2023-02-26T16:38:46.083Z,17.13
2023-02-26T16:41:32.346Z,11.95
2023-02-26T16:44:42.406Z,16.00
2023-02-26T16:47:29.480Z,17.73
2023-02-26T16:50:19.132Z,14.18
2023-02-26T16:53:09.195Z,12.55
2023-02-26T16:55:55.882Z,15.40
2023-02-26T16:58:41.308Z,13.50
2023-02-26T17:01:26.780Z,11.43
2023-02-26T17:04:17.198Z,11.80
2023-02-26T17:07:02.873Z,12.35
2023-02-26T17:09:50.742Z,12.43
2023-02-26T17:12:44.866Z,11.75
2023-02-26T17:15:31.514Z,15.48
2023-02-26T17:18:17.090Z,8.13
2023-02-26T17:21:04.366Z,20.38
2023-02-26T17:23:48.756Z,12.50
2023-02-26T17:26:32.932Z,12.88
2023-02-26T17:29:20.859Z,15.95
2023-02-26T17:32:05.805Z,8.73
2023-02-26T17:34:52.286Z,13.20
2023-02-26T17:37:37.260Z,25.33
2023-02-26T17:40:24.221Z,18.77
2023-02-26T17:43:10.093Z,12.93
2023-02-26T17:45:54.129Z,16.65
2023-02-26T17:48:38.432Z,13.52
2023-02-26T17:51:24.636Z,11.63
2023-02-26T17:54:08.424Z,11.63
2023-02-26T17:56:52.326Z,13.33
2023-02-26T17:59:36.466Z,14.32
2023-02-26T18:02:25.536Z,15.90
2023-02-26T18:05:10.671Z,11.82
2023-02-26T18:07:56.198Z,14.70
2023-02-26T18:10:40.397Z,12.37
2023-02-26T18:13:24.928Z,15.50
2023-02-26T18:16:16.525Z,15.50
2023-02-26T18:19:00.804Z,20.48
2023-02-26T18:21:44.781Z,14.82
2023-02-26T18:24:32.373Z,10.13
2023-02-26T18:27:17.772Z,8.87
2023-02-26T18:30:02.931Z,14.73
2023-02-26T18:32:47.959Z,13.40
2023-02-26T18:35:32.889Z,9.67
2023-02-26T18:38:19.185Z,16.05
2023-02-26T18:41:04.830Z,10.10
2023-02-26T18:43:49.094Z,16.50
2023-02-26T18:46:34.950Z,9.20
2023-02-26T18:49:21.269Z,8.33
2023-02-26T18:52:05.701Z,8.43
2023-02-26T18:54:49.955Z,13.53
2023-02-26T18:57:35.493Z,9.85
2023-02-26T19:00:21.580Z,8.43
2023-02-26T19:03:05.402Z,9.60
2023-02-26T19:05:57.505Z,13.30
2023-02-26T19:08:41.872Z,11.33
2023-02-26T19:11:26.517Z,10.53
2023-02-26T19:14:12.388Z,11.00
2023-02-26T19:16:56.651Z,9.93
2023-02-26T19:19:42.378Z,11.07
2023-02-26T19:22:26.379Z,12.90
2023-02-26T19:25:11.308Z,13.67
2023-02-26T19:27:56.960Z,12.40
2023-02-26T19:30:42.621Z,10.80
2023-02-26T19:33:26.556Z,13.60
2023-02-26T19:36:11.007Z,7.63
2023-02-26T19:38:55.449Z,11.10
2023-02-26T19:41:39.568Z,10.73
2023-02-26T19:44:27.571Z,11.20
2023-02-26T19:47:13.052Z,11.75
2023-02-26T19:49:56.786Z,12.47
2023-02-26T19:52:40.841Z,8.43
2023-02-26T19:55:24.669Z,8.25
2023-02-26T19:58:08.796Z,13.85
2023-02-26T20:00:53.025Z,17.53
2023-02-26T20:03:38.472Z,11.20
2023-02-26T20:06:22.905Z,12.40
2023-02-26T20:09:07.391Z,11.43
2023-02-26T20:11:51.332Z,11.93
2023-02-26T20:14:36.850Z,9.18
2023-02-26T20:17:20.914Z,6.33
2023-02-26T20:20:07.330Z,11.87
2023-02-26T20:22:51.270Z,11.52
2023-02-26T20:25:35.312Z,13.60
2023-02-26T20:28:19.431Z,12.07
2023-02-26T20:31:03.291Z,10.03
2023-02-26T20:33:47.155Z,13.57
2023-02-26T20:36:32.763Z,11.17
2023-02-26T20:39:19.089Z,9.93
2023-02-26T20:42:03.034Z,11.27
2023-02-26T20:44:46.885Z,18.37
2023-02-26T20:47:30.940Z,10.03
2023-02-26T20:50:14.845Z,9.80
2023-02-26T20:53:00.215Z,11.00
2023-02-26T20:55:44.140Z,8.87
2023-02-26T20:58:28.285Z,15.30
2023-02-26T21:01:12.284Z,12.90
2023-02-26T21:03:56.226Z,9.00
2023-02-26T21:06:40.421Z,10.70
2023-02-26T21:09:25.722Z,14.37
2023-02-26T21:12:09.653Z,6.57
2023-02-26T21:14:55.888Z,9.23
2023-02-26T21:17:40.767Z,15.85
2023-02-26T21:20:24.572Z,11.87
2023-02-26T21:23:08.425Z,9.48
2023-02-26T21:25:53.696Z,15.77
2023-02-26T21:28:37.495Z,13.38
2023-02-26T21:31:22.107Z,12.53
2023-02-26T21:34:29.952Z,9.70
2023-02-26T21:37:12.240Z,10.23
2023-02-26T21:39:56.139Z,12.23
2023-02-26T21:42:41.408Z,9.20
2023-02-26T21:45:25.265Z,10.80
2023-02-26T21:48:09.422Z,10.77
2023-02-26T21:50:56.274Z,12.57
2023-02-26T21:53:40.177Z,10.87
2023-02-26T21:56:24.023Z,11.67
2023-02-26T21:59:09.205Z,11.60
2023-02-26T22:01:53.994Z,8.53
2023-02-26T22:04:38.112Z,7.27
2023-02-26T22:07:21.886Z,13.53
2023-02-26T22:10:06.939Z,9.87
2023-02-26T22:12:50.717Z,12.17
2023-02-26T22:15:35.897Z,9.43
2023-02-26T22:18:19.709Z,7.73
2023-02-26T22:21:03.822Z,10.70
2023-02-26T22:23:47.852Z,11.63
2023-02-26T22:26:32.097Z,10.90
2023-02-26T22:29:16.798Z,11.87
2023-02-26T22:32:03.014Z,7.93
2023-02-26T22:34:46.831Z,10.20
2023-02-26T22:37:30.705Z,9.83
2023-02-26T22:40:15.606Z,10.97
2023-02-26T22:42:59.455Z,11.47
2023-02-26T22:45:43.396Z,11.27
2023-02-26T22:48:28.647Z,9.90
2023-02-26T22:51:12.474Z,12.60
2023-02-26T22:53:56.342Z,12.70
2023-02-26T22:56:40.197Z,11.10
2023-02-26T22:59:24.163Z,12.70
2023-02-26T23:02:07.898Z,8.40
2023-02-26T23:04:53.079Z,11.37
2023-02-26T23:07:37.271Z,13.93
2023-02-26T23:10:21.612Z,11.67
2023-02-26T23:13:05.690Z,14.23
2023-02-26T23:15:49.562Z,11.40
2023-02-26T23:18:34.256Z,12.90
2023-02-26T23:21:19.433Z,10.80
2023-02-26T23:24:03.425Z,10.57
2023-02-26T23:26:47.132Z,13.73
2023-02-26T23:29:30.962Z,11.13
2023-02-26T23:32:15.669Z,10.27
2023-02-26T23:34:59.712Z,13.30
2023-02-26T23:37:44.977Z,9.60
2023-02-26T23:40:28.968Z,16.10
2023-02-26T23:43:12.833Z,15.43
2023-02-26T23:45:56.742Z,15.77
2023-02-26T23:48:40.691Z,8.53
2023-02-26T23:51:24.910Z,10.80
2023-02-26T23:54:10.611Z,9.07
2023-02-26T23:56:54.316Z,9.07
2023-02-26T23:59:38.266Z,11.67
